Time;durP1;ratioP1;P1;durP2;ratioP2;P2;SDS_P1;SDS_P2;PMS_P1;PMS_P2;Temp;Humidity;BMP_temperature;BMP_pressure;BME280_temperature;BME280_humidity;BME280_pressure;Samples;Min_cycle;Max_cycle;Signal;HPM_P1;HPM_P2
2024/02/27 00:01:40;;;;;;;36.30;20.30;;;;;;;2.28;77.47;100434.01;105788;1254;161838;-73
2024/02/27 00:04:08;;;;;;;31.30;18.20;;;;;;;2.31;77.31;100426.60;105802;1257;60002;-74
2024/02/27 00:06:37;;;;;;;33.80;19.30;;;;;;;2.36;77.41;100423.11;105845;1253;72268;-72
2024/02/27 00:09:05;;;;;;;31.40;19.10;;;;;;;2.33;77.55;100421.91;105846;1254;69479;-75
2024/02/27 00:11:32;;;;;;;34.50;20.60;;;;;;;2.29;77.59;100418.84;105805;1259;71360;-76
2024/02/27 00:14:00;;;;;;;35.50;21.00;;;;;;;2.25;77.57;100423.49;105817;1254;59755;-75
2024/02/27 00:16:28;;;;;;;32.70;20.80;;;;;;;2.20;77.62;100426.77;105816;1259;59539;-73
2024/02/27 00:18:55;;;;;;;29.20;18.50;;;;;;;2.15;77.51;100426.41;105588;1253;73126;-73
2024/02/27 00:21:23;;;;;;;33.60;18.80;;;;;;;2.17;77.52;100428.73;106104;1254;69043;-74
2024/02/27 00:23:50;;;;;;;28.60;18.50;;;;;;;2.19;77.39;100424.27;108202;1254;70917;-74
2024/02/27 00:26:18;;;;;;;37.90;20.50;;;;;;;2.15;77.53;100416.77;107488;1255;59507;-73
2024/02/27 00:28:45;;;;;;;30.20;18.80;;;;;;;2.12;77.52;100422.02;106066;1259;59536;-74
2024/02/27 00:31:13;;;;;;;34.10;19.80;;;;;;;2.09;77.39;100416.33;106438;1253;71907;-74
2024/02/27 00:33:40;;;;;;;32.10;20.90;;;;;;;2.04;77.51;100417.30;105769;1253;68840;-75
2024/02/27 00:36:08;;;;;;;33.30;18.90;;;;;;;2.00;77.69;100419.12;105481;1254;71357;-72
2024/02/27 00:38:36;;;;;;;31.70;19.00;;;;;;;2.05;77.33;100418.46;105491;1260;59726;-73
2024/02/27 00:41:04;;;;;;;35.70;19.90;;;;;;;2.11;77.23;100413.73;105474;1259;59585;-75
2024/02/27 00:43:32;;;;;;;32.50;19.10;;;;;;;2.08;77.37;100411.80;105670;1253;74667;-74
2024/02/27 00:45:59;;;;;;;34.20;20.30;;;;;;;2.04;77.28;100410.31;105490;1256;69097;-74
2024/02/27 00:48:27;;;;;;;34.60;20.40;;;;;;;1.99;77.40;100411.66;105406;1258;72745;-72
2024/02/27 00:50:55;;;;;;;31.10;19.80;;;;;;;1.95;77.49;100414.02;105523;1257;60022;-75
2024/02/27 00:53:22;;;;;;;33.60;19.70;;;;;;;1.92;77.42;100416.67;105754;1254;60256;-72
2024/02/27 00:55:50;;;;;;;32.20;19.50;;;;;;;1.95;77.35;100414.52;105810;1254;72298;-72
2024/02/27 00:58:17;;;;;;;34.40;18.90;;;;;;;1.99;77.20;100413.60;105775;1254;68832;-70
2024/02/27 01:00:45;;;;;;;34.00;20.50;;;;;;;1.95;77.20;100412.12;105842;1255;70273;-71
2024/02/27 01:03:12;;;;;;;30.30;19.10;;;;;;;1.89;77.24;100413.69;105530;1257;59682;-73
2024/02/27 01:05:40;;;;;;;34.00;20.40;;;;;;;1.84;77.28;100412.46;105636;1259;59576;-74
2024/02/27 01:08:08;;;;;;;34.80;20.60;;;;;;;1.78;77.37;100412.48;105700;1254;73073;-73
2024/02/27 01:10:35;;;;;;;33.40;19.50;;;;;;;1.72;77.52;100410.19;105489;1262;68982;-74
2024/02/27 01:13:03;;;;;;;28.70;19.40;;;;;;;1.75;77.54;100404.56;105718;1260;72693;-73
2024/02/27 01:15:30;;;;;;;29.60;18.90;;;;;;;1.81;77.30;100406.70;106903;1255;59607;-74
2024/02/27 01:17:58;;;;;;;34.10;19.50;;;;;;;1.79;77.49;100408.25;108168;1254;59522;-74
2024/02/27 01:20:26;;;;;;;31.00;18.40;;;;;;;1.75;77.57;100406.54;106397;1254;73040;-75
2024/02/27 01:22:53;;;;;;;36.40;19.90;;;;;;;1.72;77.44;100406.91;105794;1256;69179;-73
2024/02/27 01:25:21;;;;;;;34.20;19.20;;;;;;;1.66;77.53;100410.25;105969;1254;71902;-74
2024/02/27 01:27:48;;;;;;;38.10;19.00;;;;;;;1.62;77.62;100413.98;105744;1256;59664;-75
2024/02/27 01:30:16;;;;;;;28.30;17.30;;;;;;;1.66;77.45;100409.90;105529;1254;59535;-74
2024/02/27 01:32:45;;;;;;;25.40;17.70;;;;;;;1.71;77.35;100408.73;105491;1259;73037;-75
2024/02/27 01:35:17;;;;;;;31.80;19.90;;;;;;;1.68;77.32;100413.25;105448;1254;68928;-73
2024/02/27 01:37:45;;;;;;;29.50;18.30;;;;;;;1.63;77.43;100407.46;105680;1257;72754;-76
2024/02/27 01:40:13;;;;;;;29.60;19.30;;;;;;;1.59;77.39;100409.64;105804;1254;59627;-73
2024/02/27 01:42:44;;;;;;;28.20;19.20;;;;;;;1.54;77.35;100404.00;105443;1256;59746;-73
2024/02/27 01:45:18;;;;;;;32.00;18.20;;;;;;;1.49;77.46;100408.66;105488;1257;74761;-72
2024/02/27 01:47:46;;;;;;;26.80;17.40;;;;;;;1.54;77.42;100410.94;105681;1256;68114;-72
2024/02/27 01:50:17;;;;;;;29.60;17.50;;;;;;;1.59;77.31;100413.15;105436;1256;71383;-73
2024/02/27 01:52:45;;;;;;;33.30;19.10;;;;;;;1.55;77.26;100416.69;105791;1257;59706;-71
2024/02/27 01:55:13;;;;;;;26.60;18.10;;;;;;;1.51;77.57;100415.01;105668;1257;59959;-73
2024/02/27 01:57:40;;;;;;;31.50;18.70;;;;;;;1.47;77.38;100415.08;105390;1257;71278;-72
2024/02/27 02:00:14;;;;;;;34.10;19.30;;;;;;;1.42;77.54;100413.11;105420;1259;68995;-71
2024/02/27 02:02:45;;;;;;;28.00;16.70;;;;;;;1.37;77.45;100413.73;105451;1257;70686;-72
2024/02/27 02:05:13;;;;;;;27.50;17.70;;;;;;;1.43;77.39;100418.63;105445;1258;61744;-72
2024/02/27 02:07:40;;;;;;;32.30;17.90;;;;;;;1.49;77.35;100418.41;105601;1254;59965;-73
2024/02/27 02:10:11;;;;;;;29.80;17.90;;;;;;;1.49;77.39;100416.53;107024;1256;70542;-71
2024/02/27 02:12:39;;;;;;;28.30;17.50;;;;;;;1.45;77.27;100419.19;107261;1255;69987;-73
2024/02/27 02:15:07;;;;;;;39.60;19.70;;;;;;;1.42;77.34;100431.09;105333;1257;72674;-71
2024/02/27 02:17:35;;;;;;;31.90;17.60;;;;;;;1.39;77.42;100427.95;105587;1259;60316;-72
2024/02/27 02:20:05;;;;;;;34.00;19.00;;;;;;;1.34;77.53;100424.57;105699;1256;59736;-72
2024/02/27 02:22:33;;;;;;;26.40;17.00;;;;;;;1.35;77.44;100426.77;105636;1259;71825;-71
2024/02/27 02:25:01;;;;;;;24.80;15.90;;;;;;;1.43;77.31;100429.79;105524;1257;68719;-72
2024/02/27 02:27:30;;;;;;;30.90;17.30;;;;;;;1.43;77.31;100430.48;105454;1259;73282;-73
2024/02/27 02:29:57;;;;;;;33.30;17.10;;;;;;;1.38;77.33;100426.59;105471;1257;59525;-72
2024/02/27 02:32:25;;;;;;;28.10;17.80;;;;;;;1.34;77.24;100426.82;105501;1257;60006;-74
2024/02/27 02:34:52;;;;;;;30.50;17.10;;;;;;;1.30;77.31;100427.25;105684;1262;73075;-74
2024/02/27 02:37:21;;;;;;;28.80;16.60;;;;;;;1.26;77.41;100426.64;105611;1259;68624;-73
2024/02/27 02:39:49;;;;;;;27.30;15.90;;;;;;;1.23;77.49;100432.73;105619;1257;72754;-71
2024/02/27 02:42:16;;;;;;;26.70;15.70;;;;;;;1.29;77.45;100427.50;105507;1258;60963;-72
2024/02/27 02:44:44;;;;;;;36.40;16.10;;;;;;;1.36;77.42;100426.17;105507;1257;60244;-71
2024/02/27 02:47:11;;;;;;;31.00;16.40;;;;;;;1.36;77.36;100428.63;105722;1254;71857;-72
2024/02/27 02:49:39;;;;;;;28.30;15.90;;;;;;;1.34;77.35;100429.29;105726;1254;70004;-74
2024/02/27 02:52:08;;;;;;;28.30;16.60;;;;;;;1.33;77.42;100431.64;105790;1256;71568;-73
2024/02/27 02:54:36;;;;;;;27.10;17.00;;;;;;;1.31;77.52;100436.45;105467;1259;59245;-75
2024/02/27 02:57:03;;;;;;;27.40;16.90;;;;;;;1.28;77.33;100436.11;105490;1254;59790;-73
2024/02/27 02:59:31;;;;;;;28.50;16.20;;;;;;;1.25;77.25;100439.09;105429;1254;71791;-75
2024/02/27 03:01:59;;;;;;;32.70;16.50;;;;;;;1.22;77.23;100438.89;106047;1254;70245;-70
2024/02/27 03:04:26;;;;;;;27.50;15.10;;;;;;;1.27;76.98;100435.61;107897;1254;71419;-72
2024/02/27 03:06:54;;;;;;;23.10;15.00;;;;;;;1.36;76.83;100432.30;106900;1259;59897;-72
2024/02/27 03:09:21;;;;;;;25.90;16.60;;;;;;;1.35;76.91;100428.52;105504;1254;60346;-71
2024/02/27 03:11:49;;;;;;;25.50;17.00;;;;;;;1.33;77.05;100431.45;105559;1259;73106;-69
2024/02/27 03:14:17;;;;;;;27.50;16.90;;;;;;;1.31;77.02;100438.03;105543;1254;70009;-68
2024/02/27 03:16:45;;;;;;;27.00;15.40;;;;;;;1.27;76.85;100442.11;105771;1259;71378;-71
2024/02/27 03:19:13;;;;;;;27.70;16.80;;;;;;;1.22;76.79;100436.09;105546;1256;59682;-70
2024/02/27 03:21:40;;;;;;;26.70;16.60;;;;;;;1.19;76.83;100441.17;105479;1254;60171;-73
2024/02/27 03:24:08;;;;;;;26.70;15.00;;;;;;;1.17;76.77;100440.08;105435;1254;73058;-74
2024/02/27 03:26:36;;;;;;;25.60;16.00;;;;;;;1.23;76.59;100441.48;105471;1254;70450;-74
2024/02/27 03:29:04;;;;;;;30.50;17.20;;;;;;;1.30;76.47;100440.34;105822;1254;72439;-72
2024/02/27 03:31:31;;;;;;;26.90;16.60;;;;;;;1.28;76.35;100440.81;105450;1254;59743;-73
2024/02/27 03:33:58;;;;;;;30.40;16.40;;;;;;;1.24;76.44;100443.65;105466;1259;60565;-73
2024/02/27 03:36:26;;;;;;;26.20;16.20;;;;;;;1.22;76.42;100442.89;105509;1254;72019;-71
2024/02/27 03:38:54;;;;;;;28.90;17.30;;;;;;;1.20;76.51;100440.23;105774;1254;70614;-70
2024/02/27 03:41:21;;;;;;;31.00;18.60;;;;;;;1.18;76.47;100440.33;105798;1254;72543;-71
2024/02/27 03:43:49;;;;;;;32.10;19.80;;;;;;;1.16;76.45;100444.48;105883;1257;59724;-70
2024/02/27 03:46:16;;;;;;;32.90;18.60;;;;;;;1.13;76.47;100445.19;105453;1256;60067;-72
2024/02/27 03:48:43;;;;;;;31.40;19.10;;;;;;;1.18;76.22;100449.59;105483;1259;72979;-72
2024/02/27 03:51:11;;;;;;;39.50;21.40;;;;;;;1.27;76.10;100451.38;105627;1259;69160;-73
2024/02/27 03:53:39;;;;;;;33.50;21.30;;;;;;;1.25;76.35;100456.20;105709;1257;71446;-71
2024/02/27 03:56:07;;;;;;;35.60;21.90;;;;;;;1.22;76.52;100458.79;105997;1259;60451;-72
2024/02/27 03:58:35;;;;;;;33.20;20.90;;;;;;;1.20;76.62;100451.43;107286;1254;60475;-72
2024/02/27 04:01:03;;;;;;;32.90;20.20;;;;;;;1.17;76.38;100451.61;106618;1254;72863;-73
2024/02/27 04:03:30;;;;;;;42.00;22.30;;;;;;;1.11;76.55;100452.42;105516;1254;70478;-74
2024/02/27 04:05:58;;;;;;;38.10;22.10;;;;;;;1.07;76.68;100456.05;105508;1256;72634;-73
2024/02/27 04:08:25;;;;;;;30.10;18.60;;;;;;;1.03;76.74;100447.38;105669;1254;61056;-72
2024/02/27 04:10:53;;;;;;;34.60;18.30;;;;;;;1.08;76.60;100450.05;106002;1254;60426;-71
2024/02/27 04:13:20;;;;;;;34.10;18.10;;;;;;;1.16;76.40;100447.98;105929;1255;71691;-72
2024/02/27 04:15:49;;;;;;;35.60;19.90;;;;;;;1.15;76.41;100450.79;105533;1256;69329;-72
2024/02/27 04:18:17;;;;;;;33.00;18.00;;;;;;;1.12;76.48;100455.38;105545;1257;72542;-70
2024/02/27 04:20:45;;;;;;;29.00;18.20;;;;;;;1.08;76.71;100457.34;105393;1254;60631;-72
2024/02/27 04:23:13;;;;;;;29.70;17.20;;;;;;;1.04;76.59;100459.50;105286;1254;60543;-72
2024/02/27 04:25:40;;;;;;;25.50;17.00;;;;;;;1.02;76.67;100461.75;105230;1254;72656;-72
2024/02/27 04:28:08;;;;;;;26.80;17.00;;;;;;;0.97;76.82;100463.70;105414;1259;69198;-74
2024/02/27 04:30:35;;;;;;;31.70;15.10;;;;;;;0.94;76.67;100467.54;105374;1259;72894;-72
2024/02/27 04:33:03;;;;;;;26.00;16.00;;;;;;;0.99;76.42;100465.19;105412;1254;60412;-71
2024/02/27 04:35:31;;;;;;;33.30;16.80;;;;;;;1.05;76.36;100469.40;105406;1259;60331;-72
2024/02/27 04:37:59;;;;;;;32.30;15.70;;;;;;;1.01;76.51;100466.66;105666;1254;72665;-72
2024/02/27 04:40:27;;;;;;;25.50;16.40;;;;;;;0.96;76.60;100466.09;105592;1254;69416;-73
2024/02/27 04:42:54;;;;;;;27.00;16.70;;;;;;;0.92;76.67;100466.29;105437;1254;71376;-73
2024/02/27 04:45:22;;;;;;;33.70;16.90;;;;;;;0.89;76.89;100467.52;105329;1259;60444;-70
2024/02/27 04:47:49;;;;;;;25.60;16.10;;;;;;;0.87;76.95;100470.27;105328;1260;60854;-73
2024/02/27 04:50:17;;;;;;;30.70;16.20;;;;;;;0.83;77.01;100469.10;105918;1254;72941;-71
2024/02/27 04:52:44;;;;;;;26.90;15.50;;;;;;;0.91;77.11;100476.14;107061;1262;68732;-71
2024/02/27 04:55:12;;;;;;;26.70;15.50;;;;;;;0.99;76.77;100477.40;106408;1253;71402;-73
2024/02/27 04:57:39;;;;;;;32.30;15.90;;;;;;;0.99;76.81;100475.84;105570;1254;60652;-72
2024/02/27 05:00:09;;;;;;;26.10;16.20;;;;;;;0.96;77.06;100478.92;105569;1259;60377;-73
2024/02/27 05:02:37;;;;;;;27.70;16.00;;;;;;;0.94;76.93;100483.95;105416;1254;72565;-71
2024/02/27 05:05:06;;;;;;;26.10;16.30;;;;;;;0.91;76.90;100487.98;105460;1254;70877;-71
2024/02/27 05:07:34;;;;;;;29.00;15.70;;;;;;;0.87;76.76;100488.88;105722;1256;72663;-72
2024/02/27 05:10:01;;;;;;;25.10;14.90;;;;;;;0.85;76.91;100496.87;105323;1259;60469;-74
2024/02/27 05:12:29;;;;;;;29.90;14.70;;;;;;;0.85;76.83;100494.60;105457;1255;60543;-73
2024/02/27 05:14:56;;;;;;;25.50;15.00;;;;;;;0.94;76.69;100496.67;105506;1255;73913;-74
2024/02/27 05:17:24;;;;;;;29.60;15.70;;;;;;;1.01;76.54;100504.86;105380;1254;69969;-71
2024/02/27 05:19:51;;;;;;;24.20;14.80;;;;;;;1.01;76.76;100503.85;105211;1262;71824;-73
2024/02/27 05:22:19;;;;;;;24.60;15.40;;;;;;;1.00;76.71;100511.89;105508;1259;60537;-73
2024/02/27 05:24:46;;;;;;;27.00;16.30;;;;;;;0.99;76.66;100509.68;105715;1254;62183;-72
2024/02/27 05:27:14;;;;;;;28.70;17.10;;;;;;;0.98;76.86;100514.09;105331;1254;73891;-74
2024/02/27 05:29:43;;;;;;;30.40;16.00;;;;;;;0.96;76.71;100515.94;105293;1254;70151;-73
2024/02/27 05:32:11;;;;;;;24.90;15.50;;;;;;;0.94;76.68;100515.70;105524;1259;72705;-73
2024/02/27 05:34:38;;;;;;;26.90;16.10;;;;;;;1.02;76.71;100518.42;105616;1254;60590;-74
2024/02/27 05:37:06;;;;;;;27.00;15.80;;;;;;;1.15;76.57;100526.88;105551;1254;60438;-73
2024/02/27 05:39:33;;;;;;;29.30;15.50;;;;;;;1.17;76.49;100527.78;105630;1254;72711;-74
2024/02/27 05:42:01;;;;;;;34.80;15.70;;;;;;;1.17;76.49;100526.96;105934;1259;68709;-71
2024/02/27 05:44:29;;;;;;;27.20;16.50;;;;;;;1.15;76.38;100526.34;106421;1259;71808;-73
2024/02/27 05:46:56;;;;;;;25.30;16.00;;;;;;;1.15;76.32;100530.92;106678;1255;60658;-73
2024/02/27 05:49:24;;;;;;;24.20;16.60;;;;;;;1.16;76.43;100532.46;106319;1259;60423;-72
2024/02/27 05:51:51;;;;;;;32.70;17.50;;;;;;;1.18;76.41;100536.88;105735;1259;73749;-73
2024/02/27 05:54:19;;;;;;;27.70;15.50;;;;;;;1.19;76.36;100538.02;105877;1254;70605;-71
2024/02/27 05:56:48;;;;;;;32.00;16.60;;;;;;;1.30;76.19;100538.96;105486;1254;72695;-72
2024/02/27 05:59:16;;;;;;;23.10;14.70;;;;;;;1.43;75.89;100546.59;105655;1254;60485;-74
2024/02/27 06:01:43;;;;;;;22.00;13.80;;;;;;;1.48;75.87;100545.05;105735;1262;60426;-77
2024/02/27 06:04:11;;;;;;;26.70;14.20;;;;;;;1.50;75.55;100547.94;105815;1254;72657;-77
2024/02/27 06:06:39;;;;;;;29.90;17.40;;;;;;;1.49;75.51;100548.86;105658;1259;70302;-75
2024/02/27 06:09:07;;;;;;;28.10;15.10;;;;;;;1.51;75.73;100552.90;105791;1256;72656;-77
2024/02/27 06:11:35;;;;;;;25.40;15.50;;;;;;;1.56;75.68;100550.68;105681;1254;60634;-74
2024/02/27 06:14:02;;;;;;;27.80;16.30;;;;;;;1.62;75.59;100554.92;105783;1254;60600;-77
2024/02/27 06:16:30;;;;;;;28.00;15.50;;;;;;;1.67;75.59;100556.31;105648;1254;74890;-76
2024/02/27 06:18:57;;;;;;;29.70;16.70;;;;;;;1.72;75.11;100557.80;105248;1261;68047;-76
2024/02/27 06:24:12;;;;;;;22.50;12.60;;;;;;;1.94;74.44;100559.27;105673;1259;60475;-77
2024/02/27 06:26:39;;;;;;;22.70;13.90;;;;;;;1.95;74.21;100560.26;105353;1256;60420;-74
2024/02/27 06:29:07;;;;;;;24.30;13.20;;;;;;;1.94;74.06;100564.13;105551;1262;72627;-74
2024/02/27 06:31:34;;;;;;;22.60;13.80;;;;;;;1.94;73.92;100563.98;105804;1255;70179;-74
2024/02/27 06:34:03;;;;;;;25.60;13.80;;;;;;;1.94;73.43;100560.46;105406;1260;70430;-76
2024/02/27 06:36:31;;;;;;;34.60;15.00;;;;;;;1.94;73.64;100562.91;105617;1257;60542;-73
2024/02/27 06:39:00;;;;;;;26.10;13.30;;;;;;;1.95;73.70;100561.14;106235;1260;60086;-74
2024/02/27 06:41:28;;;;;;;26.30;15.00;;;;;;;1.97;73.45;100560.98;108561;1255;72697;-76
2024/02/27 06:43:56;;;;;;;31.30;14.10;;;;;;;2.04;73.37;100553.42;107664;1257;68853;-73
2024/02/27 06:46:23;;;;;;;22.80;13.00;;;;;;;2.18;72.87;100554.30;105483;1262;72779;-74
2024/02/27 06:48:52;;;;;;;23.00;13.90;;;;;;;2.22;72.57;100556.38;105357;1256;60485;-77
2024/02/27 06:51:33;;;;;;;22.90;14.40;;;;;;;2.21;72.77;100563.42;105591;1255;60824;-74
2024/02/27 06:54:02;;;;;;;26.60;15.10;;;;;;;2.22;72.46;100563.31;105764;1259;74230;-75
2024/02/27 06:56:30;;;;;;;25.00;14.70;;;;;;;2.24;72.22;100559.88;105590;1257;70929;-75
2024/02/27 06:58:58;;;;;;;24.50;14.70;;;;;;;2.28;72.32;100560.86;105579;1263;72698;-76
2024/02/27 07:01:25;;;;;;;29.00;14.70;;;;;;;2.37;72.33;100561.73;105503;1257;60523;-75
2024/02/27 07:03:53;;;;;;;24.30;15.20;;;;;;;2.44;72.07;100559.05;105565;1256;60607;-75
2024/02/27 07:06:20;;;;;;;28.20;16.20;;;;;;;2.49;71.67;100567.23;105388;1261;72897;-75
2024/02/27 07:08:51;;;;;;;30.20;15.70;;;;;;;2.54;71.30;100564.64;105420;1262;68733;-76
2024/02/27 07:11:18;;;;;;;23.60;15.40;;;;;;;2.58;70.96;100564.42;105631;1261;71609;-76
2024/02/27 07:13:46;;;;;;;22.50;13.60;;;;;;;2.64;70.96;100564.91;105826;1257;60476;-76
2024/02/27 07:16:14;;;;;;;23.50;14.80;;;;;;;2.78;70.37;100568.27;105476;1257;60484;-74
2024/02/27 07:18:42;;;;;;;35.90;15.20;;;;;;;2.89;70.12;100569.43;105441;1257;73145;-74
2024/02/27 07:21:10;;;;;;;24.00;13.40;;;;;;;2.98;70.46;100570.43;105734;1259;70739;-75
2024/02/27 07:23:37;;;;;;;25.30;13.50;;;;;;;3.09;69.81;100573.79;105506;1259;71735;-73
2024/02/27 07:26:05;;;;;;;23.50;14.60;;;;;;;3.12;69.57;100577.25;105621;1259;60581;-73
2024/02/27 07:28:32;;;;;;;23.80;14.10;;;;;;;3.16;69.70;100570.16;105752;1259;60542;-76
2024/02/27 07:31:00;;;;;;;23.60;14.50;;;;;;;3.22;69.53;100568.05;105600;1255;72593;-73
2024/02/27 07:33:28;;;;;;;20.60;13.60;;;;;;;3.30;69.29;100569.93;105711;1254;68509;-75
2024/02/27 07:35:55;;;;;;;26.80;15.00;;;;;;;3.37;68.86;100569.52;108574;1255;73454;-74
2024/02/27 07:38:23;;;;;;;26.10;14.90;;;;;;;3.43;68.48;100571.59;108263;1254;61603;-75
2024/02/27 07:40:51;;;;;;;27.60;15.20;;;;;;;3.50;68.28;100575.14;105470;1260;60349;-75
2024/02/27 07:43:19;;;;;;;22.90;14.30;;;;;;;3.55;67.76;100576.04;105819;1255;72643;-74
2024/02/27 07:45:51;;;;;;;28.50;15.40;;;;;;;3.58;67.36;100575.65;105461;1254;72658;-75
2024/02/27 07:48:21;;;;;;;20.80;13.10;;;;;;;3.60;67.68;100574.80;105413;1260;72943;-74
2024/02/27 07:50:52;;;;;;;22.60;14.10;;;;;;;3.62;67.32;100577.81;105375;1257;60377;-75
2024/02/27 07:53:19;;;;;;;25.40;13.90;;;;;;;3.59;66.58;100576.09;105772;1259;61880;-75
2024/02/27 07:55:47;;;;;;;25.90;13.90;;;;;;;3.56;67.05;100578.23;105479;1257;76085;-73
2024/02/27 07:58:15;;;;;;;30.00;14.20;;;;;;;3.56;67.01;100579.42;105707;1254;70588;-74
2024/02/27 08:00:42;;;;;;;25.20;14.60;;;;;;;3.56;66.58;100579.27;105327;1260;71947;-75
2024/02/27 08:03:10;;;;;;;24.60;13.60;;;;;;;3.54;66.59;100574.84;105354;1254;61382;-76
2024/02/27 08:05:38;;;;;;;23.00;14.10;;;;;;;3.55;67.01;100576.70;105650;1254;60540;-75
2024/02/27 08:08:06;;;;;;;24.70;14.70;;;;;;;3.61;67.33;100577.20;105700;1259;76019;-76
2024/02/27 08:10:33;;;;;;;22.70;13.50;;;;;;;3.70;67.27;100583.92;105757;1260;70155;-74
2024/02/27 08:13:01;;;;;;;25.90;13.50;;;;;;;3.81;66.62;100578.84;105367;1258;74855;-76
2024/02/27 08:15:28;;;;;;;20.90;12.80;;;;;;;3.89;66.40;100584.08;105407;1260;60572;-75
2024/02/27 08:17:56;;;;;;;21.90;13.20;;;;;;;3.93;65.31;100585.34;105846;1254;60332;-74
2024/02/27 08:20:24;;;;;;;23.80;12.30;;;;;;;3.88;65.31;100586.04;105827;1259;76075;-75
2024/02/27 08:22:51;;;;;;;26.40;13.40;;;;;;;3.82;65.21;100587.36;105727;1260;69136;-76
2024/02/27 08:25:19;;;;;;;21.30;12.30;;;;;;;3.78;65.35;100584.95;105450;1260;73899;-75
2024/02/27 08:27:46;;;;;;;21.90;12.20;;;;;;;3.80;65.59;100587.98;106587;1257;60422;-75
2024/02/27 08:30:14;;;;;;;22.80;11.90;;;;;;;3.84;65.40;100588.95;108840;1254;61492;-77
2024/02/27 08:32:42;;;;;;;20.80;13.10;;;;;;;3.91;65.45;100585.86;108698;1254;72431;-76
2024/02/27 08:35:10;;;;;;;21.80;12.00;;;;;;;4.02;65.61;100588.80;105911;1261;72589;-75
2024/02/27 08:37:38;;;;;;;21.50;12.20;;;;;;;4.17;65.55;100587.21;105900;1258;73628;-75
2024/02/27 08:40:07;;;;;;;24.50;13.50;;;;;;;4.37;65.31;100589.48;105638;1260;60499;-75
2024/02/27 08:42:35;;;;;;;20.30;12.40;;;;;;;4.58;64.78;100589.98;105655;1254;61717;-75
2024/02/27 08:45:03;;;;;;;25.60;12.70;;;;;;;4.80;64.08;100585.96;105703;1265;74176;-74
2024/02/27 08:47:31;;;;;;;26.70;13.50;;;;;;;4.98;63.62;100585.02;108681;1254;68927;-77
2024/02/27 08:49:59;;;;;;;23.10;12.80;;;;;;;5.16;63.53;100584.21;106216;1257;70845;-76
2024/02/27 08:52:26;;;;;;;20.90;12.50;;;;;;;5.36;62.54;100582.94;105737;1258;60523;-75
2024/02/27 08:54:54;;;;;;;22.30;13.30;;;;;;;5.54;62.22;100577.75;105942;1260;60610;-78
2024/02/27 08:57:21;;;;;;;18.60;12.40;;;;;;;5.72;61.60;100583.94;106615;1254;74003;-76
2024/02/27 08:59:49;;;;;;;21.40;13.00;;;;;;;5.85;61.15;100578.88;105658;1259;70559;-76
2024/02/27 09:02:17;;;;;;;25.40;14.00;;;;;;;5.99;61.16;100585.94;106058;1261;71843;-75
2024/02/27 09:04:44;;;;;;;23.20;13.80;;;;;;;6.19;60.78;100584.76;105333;1261;60900;-72
2024/02/27 09:07:12;;;;;;;25.40;13.80;;;;;;;6.39;60.44;100589.55;105696;1260;60617;-78
2024/02/27 09:09:42;;;;;;;25.70;13.80;;;;;;;6.60;60.11;100592.17;105762;1259;74204;-78
2024/02/27 09:12:13;;;;;;;24.50;13.30;;;;;;;6.79;59.39;100589.41;105716;1254;69831;-79
2024/02/27 09:14:40;;;;;;;24.30;12.80;;;;;;;6.99;58.64;100589.02;106718;1259;73694;-79
2024/02/27 09:17:08;;;;;;;18.90;12.30;;;;;;;7.19;57.94;100590.91;106416;1255;61256;-78
2024/02/27 09:19:36;;;;;;;22.60;13.70;;;;;;;7.42;57.80;100589.88;106267;1255;60431;-78
2024/02/27 09:22:03;;;;;;;27.70;12.40;;;;;;;7.69;56.93;100586.77;106774;1255;77991;-79
2024/02/27 09:24:31;;;;;;;21.50;13.20;;;;;;;7.97;56.94;100587.99;108484;1254;69374;-79
2024/02/27 09:26:58;;;;;;;18.90;12.60;;;;;;;8.39;55.85;100587.07;107592;1259;73629;-79
2024/02/27 09:29:30;;;;;;;21.00;12.30;;;;;;;8.88;54.99;100580.60;105959;1257;60540;-78
2024/02/27 09:31:58;;;;;;;19.20;13.30;;;;;;;9.41;54.63;100574.42;105972;1260;60398;-78
2024/02/27 09:34:25;;;;;;;19.70;11.80;;;;;;;10.04;53.20;100575.58;105829;1260;73449;-79
2024/02/27 09:36:54;;;;;;;20.30;12.10;;;;;;;10.67;51.55;100576.52;106005;1259;70499;-78
2024/02/27 09:39:21;;;;;;;19.70;11.70;;;;;;;11.16;48.77;100578.84;106355;1260;75075;-79
2024/02/27 09:41:53;;;;;;;15.20;10.10;;;;;;;11.50;48.61;100567.07;107095;1257;60537;-78
2024/02/27 09:44:20;;;;;;;20.80;11.40;;;;;;;11.97;47.06;100567.14;106199;1254;61155;-78
2024/02/27 09:46:48;;;;;;;19.20;12.10;;;;;;;12.44;46.98;100565.86;105988;1259;72683;-79
2024/02/27 09:49:16;;;;;;;18.50;11.50;;;;;;;13.04;45.76;100558.64;106128;1263;72792;-77
2024/02/27 09:52:04;;;;;;;21.20;11.80;;;;;;;13.56;43.83;100559.56;106227;1259;71087;-79
2024/02/27 09:54:31;;;;;;;19.50;10.40;;;;;;;13.92;43.54;100555.05;106125;1256;62275;-77
2024/02/27 09:56:59;;;;;;;18.00;10.90;;;;;;;14.48;42.78;100554.66;106067;1258;60489;-79
2024/02/27 09:59:27;;;;;;;22.40;10.50;;;;;;;14.95;40.73;100560.83;106070;1261;76091;-77
2024/02/27 10:02:03;;;;;;;19.30;9.10;;;;;;;15.15;39.46;100558.79;106091;1260;71470;-77
2024/02/27 10:04:34;;;;;;;12.70;8.80;;;;;;;15.32;39.55;100552.90;106203;1257;73123;-79
2024/02/27 10:07:11;;;;;;;14.40;8.20;;;;;;;15.60;37.28;100552.17;106379;1260;60693;-78
2024/02/27 10:09:45;;;;;;;17.60;8.40;;;;;;;15.58;36.94;100551.56;106867;1254;62022;-78
2024/02/27 10:12:13;;;;;;;18.20;9.20;;;;;;;15.60;37.47;100543.23;106297;1258;73687;-78
2024/02/27 10:14:42;;;;;;;14.90;8.40;;;;;;;15.85;37.60;100543.35;107476;1254;71951;-77
2024/02/27 10:17:09;;;;;;;17.60;9.30;;;;;;;16.19;37.37;100537.09;109053;1256;71181;-78
2024/02/27 10:19:37;;;;;;;15.60;8.80;;;;;;;16.59;37.09;100536.16;107487;1260;60605;-77
2024/02/27 10:22:06;;;;;;;11.20;8.10;;;;;;;16.96;36.06;100535.65;106231;1260;61121;-78
2024/02/27 10:24:34;;;;;;;22.30;9.80;;;;;;;17.01;35.58;100527.11;106918;1254;76417;-78
2024/02/27 10:27:04;;;;;;;14.90;8.80;;;;;;;17.10;36.07;100525.30;106331;1262;68794;-77
2024/02/27 10:29:35;;;;;;;10.90;8.30;;;;;;;17.54;35.99;100526.26;106915;1259;73760;-79
2024/02/27 10:32:04;;;;;;;16.30;9.50;;;;;;;18.03;35.56;100524.80;106291;1256;60499;-76
2024/02/27 10:34:33;;;;;;;15.90;9.40;;;;;;;18.47;34.25;100525.23;106585;1258;60502;-75
2024/02/27 10:37:05;;;;;;;18.70;9.90;;;;;;;18.76;34.32;100526.80;106602;1260;74666;-77
2024/02/27 10:39:33;;;;;;;16.90;9.20;;;;;;;19.27;33.29;100530.14;106163;1259;68923;-77
2024/02/27 10:42:00;;;;;;;14.70;7.40;;;;;;;19.44;32.76;100527.90;106135;1254;72309;-78
2024/02/27 10:44:28;;;;;;;14.00;8.10;;;;;;;19.53;32.83;100527.91;106103;1269;60412;-75
2024/02/27 10:46:58;;;;;;;11.60;8.10;;;;;;;19.73;32.16;100519.67;106169;1263;60435;-77
2024/02/27 10:49:26;;;;;;;15.20;8.80;;;;;;;19.79;32.65;100532.48;106019;1263;73129;-77
2024/02/27 10:51:55;;;;;;;14.00;8.30;;;;;;;20.03;32.06;100529.08;106002;1263;71522;-75
2024/02/27 10:54:23;;;;;;;14.60;7.80;;;;;;;20.33;32.15;100531.56;106132;1260;73499;-78
2024/02/27 10:56:50;;;;;;;13.30;7.80;;;;;;;20.57;31.22;100532.66;106095;1256;61006;-78
2024/02/27 10:59:23;;;;;;;10.50;7.30;;;;;;;20.50;31.05;100531.54;106169;1258;60629;-78
2024/02/27 11:01:51;;;;;;;12.20;7.20;;;;;;;20.47;31.02;100535.98;108116;1257;73339;-80
2024/02/27 11:04:23;;;;;;;11.70;7.40;;;;;;;20.37;30.78;100532.46;107426;1263;69096;-78
2024/02/27 11:06:52;;;;;;;10.60;7.20;;;;;;;20.25;30.09;100541.46;106863;1257;71461;-78
2024/02/27 11:09:26;;;;;;;12.40;7.60;;;;;;;19.81;30.28;100536.48;108777;1258;59151;-76
2024/02/27 11:12:02;;;;;;;19.70;7.60;;;;;;;19.47;30.26;100535.58;107711;1260;60352;-77
2024/02/27 11:14:43;;;;;;;11.00;7.90;;;;;;;19.13;30.89;100534.55;106243;1262;75799;-80
2024/02/27 11:17:13;;;;;;;9.00;6.50;;;;;;;19.21;31.45;100528.23;105649;1260;70222;-77